createdAt,value
2023-01-01T00:03:19.928Z,99357.77
2023-01-01T00:09:37.209Z,99350.61
2023-01-01T00:14:53.531Z,99350.11
2023-01-01T00:20:10.272Z,99354.16
2023-01-01T00:26:10.719Z,99363.55
2023-01-01T00:38:19.781Z,99363.46
2023-01-01T01:03:39.764Z,99369.14
2023-01-01T01:10:12.257Z,99363.77
2023-01-01T01:23:55.297Z,99363.25
2023-01-01T01:30:10.914Z,99361.52
2023-01-01T01:36:13.129Z,99365.14
2023-01-01T01:42:58.234Z,99367.86
2023-01-01T02:02:59.002Z,99354.50
2023-01-01T02:09:32.783Z,99359.19
2023-01-01T02:15:18.816Z,99360.61
2023-01-01T02:21:06.769Z,99356.43
2023-01-01T02:26:44.815Z,99353.90
2023-01-01T02:32:57.048Z,99346.79
2023-01-01T02:45:21.876Z,99341.19
2023-01-01T02:50:47.825Z,99335.67
2023-01-01T03:04:19.062Z,99317.55
2023-01-01T03:10:27.202Z,99317.20
2023-01-01T03:16:48.944Z,99319.05
2023-01-01T03:22:52.784Z,99319.47
2023-01-01T03:29:02.763Z,99322.77
2023-01-01T03:35:38.753Z,99320.73
2023-01-01T03:42:09.908Z,99329.27
2023-01-01T03:54:58.463Z,99333.91
2023-01-01T04:01:06.340Z,99324.36
2023-01-01T04:07:21.452Z,99320.28
2023-01-01T04:12:40.414Z,99326.37
2023-01-01T04:18:07.182Z,99329.23
2023-01-01T04:24:45.836Z,99330.19
2023-01-01T04:31:20.584Z,99331.91
2023-01-01T04:37:26.394Z,99332.20
2023-01-01T04:42:46.831Z,99330.55
2023-01-01T04:48:41.381Z,99333.20
2023-01-01T04:54:39.992Z,99325.77
2023-01-01T05:00:19.356Z,99331.56
2023-01-01T05:06:09.000Z,99329.31
2023-01-01T05:12:02.578Z,99342.54
2023-01-01T05:17:09.338Z,99340.35
2023-01-01T05:29:06.876Z,99347.96
2023-01-01T05:35:02.046Z,99351.90
2023-01-01T05:41:00.344Z,99351.13
2023-01-01T05:47:10.038Z,99349.63
2023-01-01T05:52:37.287Z,99337.50
2023-01-01T05:57:49.940Z,99346.95
2023-01-01T06:03:42.225Z,99355.74
2023-01-01T06:10:17.389Z,99367.27
2023-01-01T06:15:43.178Z,99391.26
2023-01-01T06:21:42.349Z,99400.42
2023-01-01T06:27:26.393Z,99406.02
2023-01-01T06:33:44.768Z,99424.86
2023-01-01T06:39:24.217Z,99449.35
2023-01-01T06:44:44.734Z,99448.98
2023-01-01T06:49:59.126Z,99452.27
2023-01-01T06:56:27.524Z,99450.30
2023-01-01T07:01:56.280Z,99455.69
2023-01-01T07:07:35.857Z,99462.20
2023-01-01T07:13:16.542Z,99471.66
2023-01-01T07:18:49.487Z,99485.09
2023-01-01T07:24:21.679Z,99488.06
2023-01-01T07:29:52.267Z,99502.88
2023-01-01T07:35:02.059Z,99505.58
2023-01-01T07:41:05.643Z,99509.34
2023-01-01T07:46:38.829Z,99517.00
2023-01-01T07:52:14.511Z,99523.17
2023-01-01T07:57:47.627Z,99541.04
2023-01-01T08:03:40.193Z,99542.63
2023-01-01T08:09:08.208Z,99543.60
2023-01-01T08:14:15.291Z,99540.96
2023-01-01T08:19:53.119Z,99548.16
2023-01-01T08:25:20.498Z,99569.14
2023-01-01T08:31:55.306Z,99577.83
2023-01-01T08:37:26.752Z,99568.81
2023-01-01T08:42:50.417Z,99581.70
2023-01-01T08:49:22.782Z,99590.31
2023-01-01T08:55:03.502Z,99596.76
2023-01-01T09:00:24.532Z,99606.33
2023-01-01T09:06:23.502Z,99616.23
2023-01-01T09:12:17.506Z,99611.92
2023-01-01T09:17:40.025Z,99616.02
2023-01-01T09:22:48.965Z,99615.10
2023-01-01T09:28:03.441Z,99613.63
2023-01-01T09:33:33.380Z,99617.01
2023-01-01T09:39:03.305Z,99605.07
2023-01-01T09:44:29.569Z,99593.86
2023-01-01T09:49:54.804Z,99583.64
2023-01-01T09:55:11.958Z,99588.14
2023-01-01T10:00:20.154Z,99587.23
2023-01-01T10:06:14.652Z,99585.52
2023-01-01T10:11:59.652Z,99585.52
2023-01-01T10:17:37.098Z,99573.73
2023-01-01T10:23:25.965Z,99549.85
2023-01-01T10:29:27.183Z,99535.81
2023-01-01T10:35:19.335Z,99540.20
2023-01-01T10:41:27.005Z,99554.25
2023-01-01T10:47:11.491Z,99555.64
2023-01-01T10:52:31.788Z,99548.42
2023-01-01T10:57:40.742Z,99539.20
2023-01-01T11:02:45.183Z,99531.43
2023-01-01T11:08:10.173Z,99530.77
2023-01-01T11:13:21.010Z,99523.86
2023-01-01T11:18:50.408Z,99525.67
2023-01-01T11:24:49.594Z,99496.78
2023-01-01T11:30:59.672Z,99491.69
2023-01-01T11:36:47.764Z,99493.63
2023-01-01T11:42:47.642Z,99496.48
2023-01-01T11:48:00.602Z,99500.99
2023-01-01T11:53:52.585Z,99493.63
2023-01-01T11:59:19.619Z,99479.34
2023-01-01T12:04:51.830Z,99485.73
2023-01-01T12:10:30.371Z,99485.81
2023-01-01T12:16:27.608Z,99495.23
2023-01-01T12:21:55.050Z,99494.49
2023-01-01T12:27:28.835Z,99486.02
2023-01-01T12:33:29.739Z,99489.88
2023-01-01T12:39:46.444Z,99484.81
2023-01-01T12:45:12.863Z,99491.98
2023-01-01T12:50:51.531Z,99499.34
2023-01-01T12:56:23.352Z,99500.55
2023-01-01T13:01:36.467Z,99492.82
2023-01-01T13:06:50.378Z,99489.64
2023-01-01T13:12:33.059Z,99488.89
2023-01-01T13:17:36.904Z,99480.88
2023-01-01T13:22:44.396Z,99474.09
2023-01-01T13:27:57.149Z,99480.86
2023-01-01T13:33:50.031Z,99500.61
2023-01-01T13:38:57.021Z,99505.38
2023-01-01T13:44:05.866Z,99515.76
2023-01-01T13:50:24.456Z,99523.08
2023-01-01T13:55:50.536Z,99538.13
2023-01-01T14:01:15.075Z,99547.99
2023-01-01T14:06:36.881Z,99544.88
2023-01-01T14:11:43.345Z,99549.38
2023-01-01T14:17:07.429Z,99545.80
2023-01-01T14:23:14.736Z,99542.54
2023-01-01T14:28:35.982Z,99542.13
2023-01-01T14:33:42.843Z,99545.88
2023-01-01T14:38:49.945Z,99555.58
2023-01-01T14:44:20.881Z,99553.33
2023-01-01T14:49:42.927Z,99561.00
2023-01-01T14:55:35.595Z,99569.08
2023-01-01T15:01:34.473Z,99578.27
2023-01-01T15:07:20.422Z,99582.22
2023-01-01T15:12:44.612Z,99590.88
2023-01-01T15:18:06.097Z,99590.35
2023-01-01T15:28:18.922Z,99597.77
2023-01-01T15:34:29.466Z,99612.30
2023-01-01T15:40:39.558Z,99618.51
2023-01-01T15:46:20.294Z,99617.95
2023-01-01T15:51:35.578Z,99622.56
2023-01-01T15:56:53.681Z,99632.17
2023-01-01T16:03:10.136Z,99639.27
2023-01-01T16:08:17.631Z,99639.88
2023-01-01T16:13:44.173Z,99635.80
2023-01-01T16:19:25.470Z,99638.41
2023-01-01T16:24:55.021Z,99647.43
2023-01-01T16:30:30.675Z,99653.05
2023-01-01T16:36:29.365Z,99660.42
2023-01-01T16:42:06.281Z,99657.83
2023-01-01T16:47:23.457Z,99664.70
2023-01-01T16:52:33.891Z,99676.64
2023-01-01T16:58:38.031Z,99681.51
2023-01-01T17:03:42.150Z,99679.82
2023-01-01T17:08:51.179Z,99670.86
2023-01-01T17:14:25.143Z,99663.91
2023-01-01T17:19:53.520Z,99660.77
2023-01-01T17:25:04.868Z,99653.17
2023-01-01T17:31:29.845Z,99654.17
2023-01-01T17:37:02.398Z,99662.95
2023-01-01T17:42:35.887Z,99658.60
2023-01-01T17:47:49.744Z,99650.33
2023-01-01T17:53:14.280Z,99656.91
2023-01-01T17:58:52.007Z,99657.73
2023-01-01T18:04:40.646Z,99668.15
2023-01-01T18:10:06.495Z,99677.15
2023-01-01T18:15:44.639Z,99677.95
2023-01-01T18:21:47.620Z,99679.06
2023-01-01T18:27:12.197Z,99689.91
2023-01-01T18:32:44.751Z,99691.02
2023-01-01T18:38:10.039Z,99687.79
2023-01-01T18:43:44.233Z,99678.15
2023-01-01T18:49:00.346Z,99673.22
2023-01-01T18:54:30.158Z,99676.65
2023-01-01T19:00:02.913Z,99681.85
2023-01-01T19:05:24.428Z,99688.41
2023-01-01T19:10:40.676Z,99694.84
2023-01-01T19:16:35.368Z,99700.75
2023-01-01T19:21:58.016Z,99700.02
2023-01-01T19:27:34.376Z,99700.40
2023-01-01T19:32:46.231Z,99704.55
2023-01-01T19:38:02.347Z,99710.88
2023-01-01T19:43:26.779Z,99719.65
2023-01-01T19:48:41.673Z,99736.46
2023-01-01T19:54:11.472Z,99736.34
2023-01-01T19:59:40.204Z,99740.13
2023-01-01T20:05:34.857Z,99748.46
2023-01-01T20:11:22.682Z,99749.31
2023-01-01T20:16:59.161Z,99745.30
2023-01-01T20:22:11.551Z,99757.41
2023-01-01T20:27:49.027Z,99762.64
2023-01-01T20:33:39.184Z,99768.37
2023-01-01T20:39:12.488Z,99764.02
2023-01-01T20:45:47.269Z,99760.48
2023-01-01T20:50:54.073Z,99764.10
2023-01-01T20:56:32.181Z,99760.38
2023-01-01T21:02:36.704Z,99755.24
2023-01-01T21:07:40.626Z,99755.67
2023-01-01T21:13:29.320Z,99755.33
2023-01-01T21:19:51.272Z,99768.65
2023-01-01T21:25:51.229Z,99777.66
2023-01-01T21:31:22.058Z,99777.71
2023-01-01T21:37:16.402Z,99775.77
2023-01-01T21:43:30.705Z,99769.81
2023-01-01T21:49:58.407Z,99766.88
2023-01-01T21:56:10.649Z,99775.04
2023-01-01T22:02:40.113Z,99767.77
2023-01-01T22:08:35.138Z,99767.81
2023-01-01T22:14:20.786Z,99776.34
2023-01-01T22:20:32.516Z,99774.34
2023-01-01T22:26:10.093Z,99775.98
2023-01-01T22:31:36.567Z,99777.83
2023-01-01T22:37:40.912Z,99784.66
2023-01-01T22:43:53.962Z,99776.21
2023-01-01T22:49:58.606Z,99775.97
2023-01-01T22:55:05.887Z,99772.25
2023-01-01T23:01:40.726Z,99773.15
2023-01-01T23:07:49.291Z,99773.37
2023-01-01T23:13:51.705Z,99771.89
2023-01-01T23:19:59.976Z,99771.16
2023-01-01T23:26:20.615Z,99766.42
2023-01-01T23:31:56.875Z,99763.48
2023-01-01T23:37:44.708Z,99765.01
2023-01-01T23:44:19.058Z,99760.27
2023-01-01T23:50:45.938Z,99755.31
2023-01-01T23:56:37.458Z,99753.45
